Time;durP1;ratioP1;P1;durP2;ratioP2;P2;SDS_P1;SDS_P2;PMS_P1;PMS_P2;Temp;Humidity;BMP_temperature;BMP_pressure;BME280_temperature;BME280_humidity;BME280_pressure;Samples;Min_cycle;Max_cycle;Signal;HPM_P1;HPM_P2
2021/06/29 00:01:22;;;;;;;9.25;8.35;;;;;;;23.67;60.69;99464.50;5053925;28;20056;-86
2021/06/29 00:03:48;;;;;;;9.05;8.05;;;;;;;23.69;60.47;99461.63;5053358;28;20092;-86
2021/06/29 00:06:15;;;;;;;8.88;7.50;;;;;;;23.69;60.63;99454.44;5053576;28;20044;-86
2021/06/29 00:08:42;;;;;;;9.48;7.72;;;;;;;23.69;60.67;99451.72;5052709;28;20417;-86
2021/06/29 00:11:23;;;;;;;14.27;8.85;;;;;;;23.72;60.87;99442.47;5054094;28;20559;-83
2021/06/29 00:13:50;;;;;;;10.45;7.90;;;;;;;23.72;60.62;99445.16;5053540;28;20053;-82
2021/06/29 00:16:17;;;;;;;10.80;8.38;;;;;;;23.73;60.94;99452.19;5053321;28;20055;-82
2021/06/29 00:18:45;;;;;;;11.23;9.65;;;;;;;23.73;60.72;99451.38;5053152;28;20136;-82
2021/06/29 00:21:11;;;;;;;15.07;11.98;;;;;;;23.73;60.83;99452.19;5053307;28;20053;-83
2021/06/29 00:23:38;;;;;;;11.10;9.98;;;;;;;23.74;60.94;99447.66;5053653;28;20516;-82
2021/06/29 00:26:08;;;;;;;12.00;10.80;;;;;;;23.73;61.55;99452.19;5053476;28;20059;-82
2021/06/29 00:28:36;;;;;;;13.82;12.27;;;;;;;23.75;61.60;99449.34;5053679;28;20053;-82
2021/06/29 00:31:07;;;;;;;17.02;13.85;;;;;;;23.75;62.13;99449.34;5053171;28;20088;-82
2021/06/29 00:33:34;;;;;;;18.33;15.90;;;;;;;23.77;61.22;99441.94;5053210;28;20056;-82
2021/06/29 00:36:01;;;;;;;18.17;16.35;;;;;;;23.77;61.67;99429.31;5053101;28;20057;-82
2021/06/29 00:38:27;;;;;;;23.30;20.75;;;;;;;23.78;61.66;99435.53;5053048;28;20049;-82
2021/06/29 00:40:54;;;;;;;24.58;18.85;;;;;;;23.77;61.76;99429.31;5053020;28;20059;-82
2021/06/29 00:43:21;;;;;;;20.55;18.40;;;;;;;23.77;61.97;99431.19;5053172;28;20057;-82
2021/06/29 00:45:48;;;;;;;22.83;19.88;;;;;;;23.77;61.96;99436.56;5053069;28;20512;-82
2021/06/29 00:48:15;;;;;;;23.85;20.95;;;;;;;23.76;61.78;99435.72;5053181;28;20056;-82
2021/06/29 00:50:44;;;;;;;21.80;18.88;;;;;;;23.74;62.44;99443.13;5053006;28;20061;-83
2021/06/29 00:53:12;;;;;;;20.35;18.17;;;;;;;23.74;62.13;99445.81;5053986;28;20045;-82
2021/06/29 00:55:41;;;;;;;23.17;17.13;;;;;;;23.73;62.26;99452.19;5052599;28;20053;-82
2021/06/29 00:58:10;;;;;;;23.85;16.40;;;;;;;23.72;62.03;99445.16;5052860;28;20490;-83
2021/06/29 01:00:39;;;;;;;22.48;16.02;;;;;;;23.71;61.97;99456.94;5052973;28;20067;-82
2021/06/29 01:03:06;;;;;;;18.55;15.15;;;;;;;23.67;62.22;99458.31;5052718;28;20147;-83
2021/06/29 01:05:32;;;;;;;17.67;15.30;;;;;;;23.66;62.25;99462.03;5052574;28;20063;-83
2021/06/29 01:08:00;;;;;;;17.85;14.82;;;;;;;23.63;62.34;99463.19;5052333;28;20127;-83
2021/06/29 01:10:27;;;;;;;16.35;14.65;;;;;;;23.61;62.29;99451.81;5052534;28;20059;-83
2021/06/29 01:13:10;;;;;;;15.35;13.65;;;;;;;23.57;62.79;99458.56;5052677;28;20053;-82
2021/06/29 01:15:47;;;;;;;15.63;13.68;;;;;;;23.60;62.78;99449.28;5052491;28;20379;-83
2021/06/29 01:18:14;;;;;;;17.13;13.43;;;;;;;23.63;62.53;99451.63;5052330;28;20501;-83
2021/06/29 01:20:41;;;;;;;17.65;13.80;;;;;;;23.63;62.40;99452.44;5052029;28;20049;-83
2021/06/29 01:23:10;;;;;;;16.77;14.88;;;;;;;23.63;62.39;99446.25;5052555;28;20057;-82
2021/06/29 01:25:39;;;;;;;16.15;14.48;;;;;;;23.61;62.55;99446.44;5052333;28;20053;-83
2021/06/29 01:28:46;;;;;;;17.45;15.60;;;;;;;23.58;62.48;99454.84;5052668;28;20504;-82
2021/06/29 01:31:09;;;;;;;19.58;16.02;;;;;;;23.52;63.32;99455.56;5049866;28;20045;-83
2021/06/29 01:33:36;;;;;;;22.15;16.70;;;;;;;23.51;62.97;99457.41;5052052;28;20053;-82
2021/06/29 01:36:04;;;;;;;22.85;16.38;;;;;;;23.46;63.11;99457.13;5051935;28;20048;-82
2021/06/29 01:38:30;;;;;;;21.02;17.02;;;;;;;23.46;63.27;99467.88;5052052;28;20051;-83
2021/06/29 01:40:58;;;;;;;22.05;16.75;;;;;;;23.43;63.04;99463.69;5052225;28;20048;-83
2021/06/29 01:43:29;;;;;;;20.20;16.98;;;;;;;23.41;63.54;99456.84;5052028;28;20468;-82
2021/06/29 01:45:56;;;;;;;16.52;14.88;;;;;;;23.42;63.23;99461.19;5051952;28;20412;-83
2021/06/29 01:48:28;;;;;;;17.83;14.50;;;;;;;23.41;63.82;99459.50;5051819;28;20216;-82
2021/06/29 01:50:56;;;;;;;16.60;14.90;;;;;;;23.46;63.34;99458.97;5052027;28;20382;-86
2021/06/29 01:53:23;;;;;;;15.25;13.68;;;;;;;23.48;63.45;99449.72;5051954;28;20052;-86
2021/06/29 01:55:51;;;;;;;16.95;14.52;;;;;;;23.49;63.31;99448.72;5052247;28;20067;-82
2021/06/29 01:58:27;;;;;;;16.27;14.52;;;;;;;23.52;63.41;99447.50;5051784;28;20679;-82
2021/06/29 02:00:55;;;;;;;19.80;14.25;;;;;;;23.54;63.27;99449.00;5051851;28;20060;-82
2021/06/29 02:03:22;;;;;;;16.38;14.65;;;;;;;23.55;63.14;99449.84;5051898;28;20053;-82
2021/06/29 02:05:55;;;;;;;18.63;16.58;;;;;;;23.52;63.92;99448.34;5051494;28;20055;-82
2021/06/29 02:08:22;;;;;;;17.83;15.95;;;;;;;23.55;63.14;99455.22;5051743;28;20047;-82
2021/06/29 02:10:48;;;;;;;18.77;16.77;;;;;;;23.55;63.21;99445.28;5051701;28;20049;-83
2021/06/29 02:13:17;;;;;;;19.20;16.60;;;;;;;23.56;63.64;99451.50;5051699;28;20429;-83
2021/06/29 02:15:45;;;;;;;18.65;16.05;;;;;;;23.58;63.43;99454.03;5051809;28;20056;-82
2021/06/29 02:18:11;;;;;;;19.10;15.98;;;;;;;23.60;63.38;99455.50;5051790;28;20071;-82
2021/06/29 02:20:38;;;;;;;20.08;15.50;;;;;;;23.61;63.28;99450.94;5051597;28;20053;-82
2021/06/29 02:23:05;;;;;;;20.58;17.00;;;;;;;23.62;63.45;99450.78;5051786;28;20140;-83
2021/06/29 02:25:32;;;;;;;18.27;16.42;;;;;;;23.63;63.61;99440.88;5051739;28;20064;-83
2021/06/29 02:27:59;;;;;;;21.60;15.90;;;;;;;23.61;63.15;99441.06;5051446;28;20067;-83
2021/06/29 02:30:25;;;;;;;18.35;16.02;;;;;;;23.62;63.13;99444.59;5051403;28;20055;-83
2021/06/29 02:32:52;;;;;;;18.42;16.52;;;;;;;23.61;63.45;99440.22;5053620;28;20056;-83
2021/06/29 02:35:22;;;;;;;20.33;17.27;;;;;;;23.58;64.14;99433.34;5055162;28;20053;-83
2021/06/29 02:37:49;;;;;;;22.30;17.52;;;;;;;23.58;63.35;99440.59;5055707;28;20496;-83
2021/06/29 02:40:25;;;;;;;22.95;18.17;;;;;;;23.50;64.31;99431.56;5055128;28;20135;-83
2021/06/29 02:42:52;;;;;;;20.60;18.52;;;;;;;23.52;63.87;99437.59;5035214;28;20056;-83
2021/06/29 02:45:21;;;;;;;24.67;17.80;;;;;;;23.50;63.96;99430.72;5051831;28;20508;-82
2021/06/29 02:47:49;;;;;;;22.33;19.13;;;;;;;23.47;63.82;99437.28;5051958;28;20076;-83
2021/06/29 02:50:21;;;;;;;24.23;18.65;;;;;;;23.43;64.61;99428.78;5042947;28;20490;-83
2021/06/29 02:52:47;;;;;;;20.48;18.27;;;;;;;23.46;64.02;99421.34;5055113;28;20053;-82
2021/06/29 02:55:15;;;;;;;24.42;18.33;;;;;;;23.44;64.54;99418.88;5054933;28;20071;-83
2021/06/29 02:57:43;;;;;;;18.92;16.63;;;;;;;23.46;64.34;99421.34;5054519;28;20051;-83
2021/06/29 03:00:13;;;;;;;19.35;17.35;;;;;;;23.47;64.61;99409.63;5055061;28;20136;-82
2021/06/29 03:02:40;;;;;;;22.23;18.02;;;;;;;23.48;64.49;99413.97;5055026;28;20057;-83
2021/06/29 03:05:08;;;;;;;24.30;18.48;;;;;;;23.48;64.48;99414.81;5054875;28;20060;-83
2021/06/29 03:07:34;;;;;;;22.15;17.77;;;;;;;23.50;64.06;99414.59;5054976;28;20063;-83
2021/06/29 03:10:06;;;;;;;21.05;18.70;;;;;;;23.49;64.78;99416.47;5054905;28;20405;-83
2021/06/29 03:12:34;;;;;;;23.25;18.08;;;;;;;23.51;64.49;99413.63;5054796;28;20063;-83
2021/06/29 03:15:02;;;;;;;23.05;19.60;;;;;;;23.49;64.56;99412.94;5054591;28;20052;-83
2021/06/29 03:17:30;;;;;;;19.20;17.17;;;;;;;23.46;64.43;99414.16;5054551;28;20051;-83
2021/06/29 03:19:57;;;;;;;23.85;17.65;;;;;;;23.44;64.15;99405.44;5054686;28;20498;-83
2021/06/29 03:22:24;;;;;;;21.30;18.00;;;;;;;23.41;64.63;99401.25;5056632;28;20233;-83
2021/06/29 03:24:53;;;;;;;20.52;16.75;;;;;;;23.40;64.86;99404.13;5054770;28;20405;-83
2021/06/29 03:27:20;;;;;;;17.70;15.90;;;;;;;23.40;64.79;99396.06;5054638;28;20405;-83
2021/06/29 03:29:46;;;;;;;21.60;18.30;;;;;;;23.40;64.66;99396.06;5054522;28;20053;-83
2021/06/29 03:32:24;;;;;;;19.85;17.75;;;;;;;23.37;65.31;99388.38;5054365;28;20061;-83
2021/06/29 03:34:51;;;;;;;18.38;16.15;;;;;;;23.43;64.70;99393.84;5055610;28;20500;-83
2021/06/29 03:37:18;;;;;;;22.88;18.17;;;;;;;23.44;64.63;99400.06;5054248;28;20055;-83
2021/06/29 03:39:47;;;;;;;22.65;18.30;;;;;;;23.44;65.21;99402.75;5054287;28;20144;-82
2021/06/29 03:42:14;;;;;;;25.13;19.52;;;;;;;23.46;64.71;99408.78;5054326;28;20136;-83
2021/06/29 03:44:40;;;;;;;21.75;19.45;;;;;;;23.47;64.72;99399.69;5053875;28;20413;-83
2021/06/29 03:47:14;;;;;;;21.27;19.13;;;;;;;23.47;65.31;99401.56;5054056;28;20536;-83
2021/06/29 03:49:41;;;;;;;22.55;20.17;;;;;;;23.49;64.75;99400.38;5054155;28;20067;-83
2021/06/29 03:52:08;;;;;;;21.00;18.77;;;;;;;23.50;64.73;99399.34;5054352;28;20063;-82
2021/06/29 03:54:36;;;;;;;21.27;17.85;;;;;;;23.49;64.97;99392.31;5054957;28;20052;-83
2021/06/29 03:57:03;;;;;;;21.23;18.92;;;;;;;23.50;64.92;99402.03;5055047;28;20059;-83
2021/06/29 03:59:33;;;;;;;22.10;19.25;;;;;;;23.49;65.09;99397.69;5053888;28;20061;-82
2021/06/29 04:02:00;;;;;;;23.08;19.55;;;;;;;23.51;64.97;99392.94;5054808;28;20051;-83
2021/06/29 04:04:26;;;;;;;23.67;19.60;;;;;;;23.53;65.31;99398.13;5054213;28;20467;-83
2021/06/29 04:06:54;;;;;;;21.80;19.58;;;;;;;23.53;65.05;99387.41;5053889;28;20053;-83
2021/06/29 04:09:21;;;;;;;25.33;19.05;;;;;;;23.54;65.19;99384.53;5053607;28;20061;-82
2021/06/29 04:11:48;;;;;;;23.15;20.33;;;;;;;23.56;65.00;99385.16;5053882;28;20056;-83
2021/06/29 04:14:17;;;;;;;23.02;20.00;;;;;;;23.57;65.17;99383.31;5053655;28;20397;-83
2021/06/29 04:16:43;;;;;;;20.15;18.00;;;;;;;23.58;65.23;99376.94;5053540;28;20143;-83
2021/06/29 04:19:10;;;;;;;21.50;18.98;;;;;;;23.61;65.06;99383.78;5053433;28;20076;-83
2021/06/29 04:21:39;;;;;;;21.25;18.55;;;;;;;23.61;65.59;99378.41;5054534;28;20144;-84
2021/06/29 04:24:06;;;;;;;21.90;19.23;;;;;;;23.64;65.03;99380.75;5053483;28;20500;-84
2021/06/29 04:26:34;;;;;;;21.50;19.20;;;;;;;23.66;65.23;99384.09;5053284;28;20063;-84
2021/06/29 04:29:01;;;;;;;21.52;19.30;;;;;;;23.67;65.30;99380.38;5053175;28;20067;-84
2021/06/29 04:31:28;;;;;;;22.05;18.67;;;;;;;23.68;65.03;99384.75;5053410;28;20053;-84
2021/06/29 04:33:55;;;;;;;22.73;20.08;;;;;;;23.68;65.20;99388.28;5053298;28;20053;-84
2021/06/29 04:36:31;;;;;;;23.48;19.50;;;;;;;23.66;65.84;99386.78;5053235;28;20056;-84
2021/06/29 04:38:58;;;;;;;25.40;18.55;;;;;;;23.70;64.92;99388.09;5054218;28;20048;-84
2021/06/29 04:41:31;;;;;;;22.00;19.65;;;;;;;23.69;65.89;99391.78;5053022;28;20067;-84
2021/06/29 04:43:57;;;;;;;20.55;18.20;;;;;;;23.71;65.00;99395.13;5052778;28;20048;-84
2021/06/29 04:46:24;;;;;;;20.73;18.00;;;;;;;23.73;65.19;99390.41;5053468;28;20061;-83
2021/06/29 04:48:52;;;;;;;20.10;18.02;;;;;;;23.72;65.17;99391.41;5053064;28;20056;-84
2021/06/29 04:51:19;;;;;;;20.23;18.02;;;;;;;23.74;65.28;99384.00;5052816;28;20049;-83
2021/06/29 04:53:45;;;;;;;19.23;17.15;;;;;;;23.74;65.65;99391.25;5053803;28;20060;-84
2021/06/29 04:56:18;;;;;;;17.98;15.95;;;;;;;23.74;65.36;99391.25;5051861;28;20063;-84
2021/06/29 04:58:58;;;;;;;17.95;16.17;;;;;;;23.73;65.54;99382.34;5052728;28;20459;-83
2021/06/29 05:01:35;;;;;;;18.08;16.15;;;;;;;23.76;65.48;99378.44;5053692;28;20088;-83
2021/06/29 05:04:02;;;;;;;17.73;16.02;;;;;;;23.76;65.32;99378.44;5052785;28;20049;-83
2021/06/29 05:06:30;;;;;;;19.30;16.13;;;;;;;23.77;65.48;99383.63;5053754;28;20049;-83
2021/06/29 05:08:57;;;;;;;16.23;14.52;;;;;;;23.79;65.28;99372.72;5052521;28;20055;-84
2021/06/29 05:11:23;;;;;;;16.75;14.50;;;;;;;23.80;65.69;99374.38;5052729;28;20057;-86
2021/06/29 05:13:50;;;;;;;17.45;14.32;;;;;;;23.81;65.61;99374.19;5052336;28;20057;-86
2021/06/29 05:16:17;;;;;;;15.43;13.82;;;;;;;23.82;65.64;99370.47;5052300;28;20053;-86
2021/06/29 05:18:51;;;;;;;14.02;12.55;;;;;;;23.82;66.13;99381.22;5052217;28;20049;-86
2021/06/29 05:21:18;;;;;;;13.23;11.73;;;;;;;23.86;65.50;99376.34;5052414;28;20048;-86
2021/06/29 05:23:45;;;;;;;10.60;9.60;;;;;;;23.88;64.95;99376.97;5051995;28;20060;-87
2021/06/29 05:26:12;;;;;;;11.05;9.93;;;;;;;23.89;65.17;99369.75;5052263;28;20052;-86
2021/06/29 05:28:38;;;;;;;12.10;9.35;;;;;;;23.91;65.10;99367.72;5053394;28;20135;-86
2021/06/29 05:31:06;;;;;;;9.50;8.63;;;;;;;23.90;64.97;99360.66;5053676;28;20056;-84
2021/06/29 05:33:33;;;;;;;12.48;9.63;;;;;;;23.90;64.60;99371.41;5052325;28;20060;-83
2021/06/29 05:36:00;;;;;;;11.40;8.98;;;;;;;23.89;64.28;99359.81;5053086;28;20049;-83
2021/06/29 05:38:27;;;;;;;9.70;8.45;;;;;;;23.89;64.57;99351.75;5051778;28;20055;-83
2021/06/29 05:40:54;;;;;;;12.88;7.95;;;;;;;23.89;64.24;99351.75;5052207;28;20052;-83
2021/06/29 05:43:20;;;;;;;8.63;7.15;;;;;;;23.90;63.98;99345.38;5051820;28;20048;-83
2021/06/29 05:45:47;;;;;;;7.93;6.93;;;;;;;23.90;63.69;99339.16;5051698;28;20052;-83
2021/06/29 05:48:17;;;;;;;8.77;6.35;;;;;;;23.91;64.04;99343.50;5053276;28;20492;-83
2021/06/29 05:50:48;;;;;;;9.98;6.47;;;;;;;23.90;63.55;99339.16;5052036;28;20055;-83
2021/06/29 05:53:15;;;;;;;5.88;5.32;;;;;;;23.93;63.62;99341.50;5033609;28;20059;-83
2021/06/29 05:55:42;;;;;;;8.65;5.85;;;;;;;23.94;63.67;99341.31;5031829;28;20052;-83
2021/06/29 05:58:18;;;;;;;7.55;5.13;;;;;;;23.94;63.41;99340.47;5032196;28;20453;-83
2021/06/29 06:00:45;;;;;;;6.57;5.13;;;;;;;23.98;63.30;99338.22;5032243;28;20075;-83
2021/06/29 06:03:12;;;;;;;5.95;5.05;;;;;;;24.00;63.47;99337.03;5031714;28;20061;-83
2021/06/29 06:05:39;;;;;;;8.50;4.53;;;;;;;24.02;63.33;99331.47;5039810;28;20072;-84
2021/06/29 06:08:05;;;;;;;4.95;4.30;;;;;;;24.04;63.39;99327.56;5051543;28;20052;-83
2021/06/29 06:10:32;;;;;;;5.00;4.22;;;;;;;24.06;63.57;99328.22;5051755;28;20494;-83
2021/06/29 06:12:59;;;;;;;5.60;4.20;;;;;;;24.12;62.92;99331.22;5051509;28;20143;-83
2021/06/29 06:15:26;;;;;;;5.95;3.90;;;;;;;24.15;63.11;99328.97;5051347;28;20092;-83
2021/06/29 06:17:53;;;;;;;4.68;3.65;;;;;;;24.20;62.60;99337.34;5051890;28;20474;-84
2021/06/29 06:20:22;;;;;;;4.43;3.83;;;;;;;24.24;62.58;99345.00;5051141;28;20057;-83
2021/06/29 06:22:48;;;;;;;4.88;3.67;;;;;;;24.27;62.33;99348.19;5051433;28;20057;-83
2021/06/29 06:25:15;;;;;;;6.32;3.63;;;;;;;24.30;62.38;99349.66;5052811;28;20111;-83
2021/06/29 06:27:52;;;;;;;5.70;4.30;;;;;;;24.27;62.22;99356.25;5051544;28;20064;-83
2021/06/29 06:30:19;;;;;;;7.45;4.13;;;;;;;24.30;62.16;99355.84;5051662;28;20131;-84
2021/06/29 06:32:46;;;;;;;7.03;4.07;;;;;;;24.30;62.03;99358.53;5051445;28;20056;-83
2021/06/29 06:35:13;;;;;;;8.60;4.78;;;;;;;24.30;62.05;99363.91;5050902;28;20136;-84
2021/06/29 06:37:40;;;;;;;4.65;4.20;;;;;;;24.28;62.18;99360.59;5051725;28;20409;-83
2021/06/29 06:40:08;;;;;;;14.52;5.50;;;;;;;24.28;62.22;99363.28;5051494;28;20057;-83
2021/06/29 06:42:46;;;;;;;9.10;4.60;;;;;;;24.25;61.73;99352.06;5051306;28;20049;-83
2021/06/29 06:45:14;;;;;;;8.02;5.43;;;;;;;24.28;61.62;99355.22;5051183;28;20139;-84
2021/06/29 06:47:45;;;;;;;8.07;5.35;;;;;;;24.26;61.71;99353.75;5051311;28;20472;-83
2021/06/29 06:50:12;;;;;;;5.28;4.55;;;;;;;24.26;61.75;99349.19;5050891;28;20048;-83
2021/06/29 06:52:39;;;;;;;6.95;5.05;;;;;;;24.25;61.79;99354.78;5051168;28;20095;-83
2021/06/29 06:55:19;;;;;;;5.50;5.00;;;;;;;24.20;62.21;99356.16;5050933;28;20053;-83
2021/06/29 06:57:46;;;;;;;9.88;5.75;;;;;;;24.25;62.27;99358.28;5051489;28;20409;-83
2021/06/29 07:00:13;;;;;;;8.88;5.95;;;;;;;24.26;62.36;99354.56;5051051;28;20088;-83
2021/06/29 07:02:44;;;;;;;9.40;6.35;;;;;;;24.26;62.41;99359.13;5051027;28;20057;-85
2021/06/29 07:05:12;;;;;;;8.27;6.13;;;;;;;24.27;62.20;99366.16;5050656;28;20048;-85
2021/06/29 07:07:38;;;;;;;7.85;6.28;;;;;;;24.27;62.59;99361.63;5050953;28;20053;-83
2021/06/29 07:10:16;;;;;;;10.13;7.75;;;;;;;24.25;62.56;99352.06;5051015;28;20045;-83
2021/06/29 07:12:43;;;;;;;8.40;7.38;;;;;;;24.30;62.52;99358.53;5051122;28;20053;-83
2021/06/29 07:15:10;;;;;;;8.90;8.00;;;;;;;24.32;62.90;99352.97;5051097;28;20402;-83
2021/06/29 07:17:37;;;;;;;10.18;8.65;;;;;;;24.36;63.08;99362.34;5050976;28;20059;-83
2021/06/29 07:20:08;;;;;;;11.23;9.73;;;;;;;24.39;63.18;99361.13;5054419;28;20504;-83
2021/06/29 07:22:36;;;;;;;11.45;9.80;;;;;;;24.43;62.42;99365.97;5054562;28;20048;-83
2021/06/29 07:25:08;;;;;;;13.50;10.15;;;;;;;24.43;62.74;99365.09;5054385;28;20099;-87
2021/06/29 07:27:35;;;;;;;12.50;9.77;;;;;;;24.48;63.00;99361.88;5054541;28;20055;-86
2021/06/29 07:30:04;;;;;;;10.30;8.77;;;;;;;24.50;62.94;99359.81;5054181;28;20421;-86
2021/06/29 07:32:34;;;;;;;10.18;9.20;;;;;;;24.52;63.50;99363.97;5054072;28;20049;-87
2021/06/29 07:35:01;;;;;;;13.18;10.35;;;;;;;24.58;63.02;99357.84;5054267;28;20064;-87
2021/06/29 07:37:31;;;;;;;12.40;10.98;;;;;;;24.64;62.87;99356.28;5054424;28;20053;-87
2021/06/29 07:39:59;;;;;;;11.10;9.70;;;;;;;24.70;63.17;99349.25;5054273;28;20057;-87
2021/06/29 07:42:25;;;;;;;14.30;10.63;;;;;;;24.76;63.07;99358.44;5054308;28;20161;-87
2021/06/29 07:45:06;;;;;;;15.05;9.93;;;;;;;24.79;62.88;99367.00;5054885;28;20055;-87
2021/06/29 07:47:33;;;;;;;12.13;10.65;;;;;;;24.89;62.32;99361.31;5040694;28;20049;-87
2021/06/29 07:50:01;;;;;;;11.93;9.90;;;;;;;24.94;62.67;99360.75;5054407;28;20053;-87
2021/06/29 07:52:30;;;;;;;10.57;9.57;;;;;;;24.98;62.74;99357.44;5054022;28;20052;-87
2021/06/29 07:54:57;;;;;;;11.07;10.00;;;;;;;25.05;62.92;99362.09;5053892;28;20057;-86
2021/06/29 07:57:24;;;;;;;11.82;9.43;;;;;;;25.10;62.67;99360.50;5054507;28;20052;-87
2021/06/29 07:59:51;;;;;;;14.52;11.73;;;;;;;25.17;61.96;99363.25;5055345;28;20048;-87
2021/06/29 08:02:18;;;;;;;13.57;10.93;;;;;;;25.23;62.42;99369.72;5053560;28;20088;-87
2021/06/29 08:04:49;;;;;;;12.57;10.80;;;;;;;25.26;62.79;99361.22;5055097;28;20048;-87
2021/06/29 08:07:16;;;;;;;11.88;10.65;;;;;;;25.34;62.34;99361.09;5053862;28;20067;-86
2021/06/29 08:09:44;;;;;;;13.82;10.27;;;;;;;25.41;62.26;99366.53;5054265;28;20474;-87
2021/06/29 08:12:14;;;;;;;15.43;13.13;;;;;;;25.50;62.00;99359.97;5053821;28;20056;-86
2021/06/29 08:14:41;;;;;;;15.30;11.95;;;;;;;25.57;62.07;99361.94;5053589;28;20417;-86
2021/06/29 08:17:08;;;;;;;11.80;10.40;;;;;;;25.61;61.63;99369.41;5053668;28;20057;-87
2021/06/29 08:19:35;;;;;;;12.43;11.15;;;;;;;25.65;61.62;99363.63;5053081;28;20059;-87
2021/06/29 08:22:08;;;;;;;13.52;11.50;;;;;;;25.65;61.31;99369.88;5053609;28;20056;-86
2021/06/29 08:24:35;;;;;;;13.15;11.85;;;;;;;25.71;61.21;99360.19;5053635;28;20482;-87
2021/06/29 08:27:03;;;;;;;14.70;12.30;;;;;;;25.73;60.80;99360.78;5053842;28;20061;-87
2021/06/29 08:29:29;;;;;;;16.05;13.80;;;;;;;25.74;60.72;99357.06;5052610;28;20048;-86
2021/06/29 08:31:56;;;;;;;13.98;12.40;;;;;;;25.73;60.36;99352.72;5054613;28;20057;-87
2021/06/29 08:34:22;;;;;;;14.15;12.65;;;;;;;25.72;60.55;99359.13;5053343;28;20508;-87
2021/06/29 08:36:55;;;;;;;12.98;11.77;;;;;;;25.67;60.27;99354.31;5053491;28;20061;-87
2021/06/29 08:39:22;;;;;;;;;;;;;;;25.68;61.16;99366.75;5054620;28;20045;-87
2021/06/29 08:41:49;;;;;;;12.40;11.23;;;;;;;25.78;60.00;99360.22;5052973;28;19927;-87
2021/06/29 08:44:24;;;;;;;12.10;11.05;;;;;;;25.73;58.62;99360.78;5053046;28;20063;-86
2021/06/29 08:46:50;;;;;;;12.68;10.75;;;;;;;25.77;59.26;99359.38;5053103;28;20053;-87
2021/06/29 08:49:17;;;;;;;13.02;11.88;;;;;;;25.78;59.57;99352.13;5054442;28;20429;-87
2021/06/29 08:51:57;;;;;;;11.82;10.57;;;;;;;25.76;59.63;99352.31;5053069;28;20136;-87
2021/06/29 08:54:24;;;;;;;13.68;12.40;;;;;;;25.81;59.76;99355.25;5052999;28;20053;-87
2021/06/29 08:56:50;;;;;;;15.05;13.82;;;;;;;25.85;59.43;99343.03;5052861;28;20482;-86
2021/06/29 08:59:42;;;;;;;15.52;14.07;;;;;;;25.86;60.23;99344.69;5052739;28;20053;-87
2021/06/29 09:02:09;;;;;;;14.95;13.55;;;;;;;26.01;60.04;99344.59;5052721;28;20056;-87
2021/06/29 09:04:51;;;;;;;16.50;15.10;;;;;;;26.09;59.28;99340.06;5052475;28;20056;-85
2021/06/29 09:07:25;;;;;;;17.45;15.93;;;;;;;26.25;58.80;99344.28;5052303;28;20495;-85
2021/06/29 09:10:28;;;;;;;18.95;17.25;;;;;;;26.33;58.67;99341.44;5052400;28;20053;-85
2021/06/29 09:12:55;;;;;;;17.73;16.20;;;;;;;26.48;58.28;99346.69;5052888;28;20503;-85
2021/06/29 09:15:52;;;;;;;19.25;17.63;;;;;;;26.55;57.27;99349.41;5052585;28;20056;-85
2021/06/29 09:18:22;;;;;;;18.63;17.02;;;;;;;26.60;56.85;99352.31;5050236;28;20063;-85
2021/06/29 09:21:03;;;;;;;19.27;17.38;;;;;;;26.59;56.22;99349.81;5052600;28;20060;-85
2021/06/29 09:23:39;;;;;;;18.85;16.55;;;;;;;26.58;55.78;99349.00;5052387;28;20409;-85
2021/06/29 09:26:13;;;;;;;15.70;14.20;;;;;;;26.61;55.86;99348.56;4991544;28;20142;-84
2021/06/29 09:29:13;;;;;;;15.63;14.05;;;;;;;26.63;56.46;99345.69;4975641;28;20085;-84
2021/06/29 09:31:41;;;;;;;17.30;15.63;;;;;;;26.74;55.77;99352.34;4990700;28;20060;-84
2021/06/29 09:34:11;;;;;;;19.02;17.17;;;;;;;26.77;55.57;99350.06;4975686;28;20050;-84
2021/06/29 09:36:44;;;;;;;18.98;17.17;;;;;;;26.78;54.48;99346.34;4975667;28;20137;-83
2021/06/29 09:39:17;;;;;;;;;;;;;;;26.80;56.07;99351.56;4992266;28;20499;-85
2021/06/29 09:41:47;;;;;;;19.77;17.92;;;;;;;26.87;55.14;99352.38;4914159;29;20339;-86
2021/06/29 09:44:19;;;;;;;19.52;17.70;;;;;;;26.86;54.77;99357.97;4914797;29;20100;-85
2021/06/29 09:46:45;;;;;;;20.85;18.92;;;;;;;26.85;54.87;99354.47;4914818;29;20055;-85
2021/06/29 09:49:15;;;;;;;19.35;17.55;;;;;;;26.84;54.94;99350.09;4914771;29;20059;-85
2021/06/29 09:51:50;;;;;;;20.52;18.63;;;;;;;26.86;55.58;99339.91;4967087;28;20534;-86
2021/06/29 09:54:21;;;;;;;20.20;18.23;;;;;;;26.93;55.88;99348.88;4952805;28;20101;-85
2021/06/29 09:56:48;;;;;;;21.67;19.55;;;;;;;27.02;55.04;99351.41;4955946;28;20078;-85
2021/06/29 09:59:24;;;;;;;21.30;19.27;;;;;;;27.10;54.38;99347.66;4978129;28;20111;-85
2021/06/29 10:02:13;;;;;;;21.13;19.13;;;;;;;27.15;55.20;99343.31;5052053;28;20461;-85
2021/06/29 10:04:40;;;;;;;21.05;18.88;;;;;;;27.28;54.10;99342.47;5053051;28;20059;-85
2021/06/29 10:07:17;;;;;;;23.20;20.95;;;;;;;27.31;53.64;99346.63;5051613;28;20056;-85
2021/06/29 10:10:16;;;;;;;21.02;18.80;;;;;;;27.33;53.94;99336.47;5051370;28;20091;-85
2021/06/29 10:12:43;;;;;;;20.67;18.70;;;;;;;27.43;54.10;99336.84;5045381;28;20056;-85
2021/06/29 10:15:11;;;;;;;22.23;20.05;;;;;;;27.47;53.03;99334.56;5051535;28;20045;-85
2021/06/29 10:17:39;;;;;;;21.80;19.70;;;;;;;27.49;52.45;99337.06;5051543;28;20049;-86
2021/06/29 10:20:25;;;;;;;22.20;19.85;;;;;;;27.52;53.68;99337.47;5052886;28;20057;-85
2021/06/29 10:22:54;;;;;;;18.67;16.92;;;;;;;27.58;54.50;99328.53;5051406;28;20057;-83
2021/06/29 10:25:21;;;;;;;20.48;18.58;;;;;;;27.66;53.95;99335.59;5051314;28;20057;-85
2021/06/29 10:28:07;;;;;;;24.05;17.70;;;;;;;27.73;53.68;99324.78;5051430;28;20401;-85
2021/06/29 10:30:40;;;;;;;18.75;16.85;;;;;;;27.87;52.95;99317.47;5051348;28;20487;-84
2021/06/29 10:33:11;;;;;;;19.05;17.15;;;;;;;27.98;52.38;99326.78;5052815;28;20049;-83
2021/06/29 10:35:41;;;;;;;18.20;16.52;;;;;;;28.07;50.94;99327.41;5051083;28;20057;-84
2021/06/29 10:38:10;;;;;;;18.95;17.15;;;;;;;28.15;51.69;99320.91;5051330;28;20052;-84
2021/06/29 10:40:43;;;;;;;17.02;15.43;;;;;;;28.17;51.67;99321.50;5051342;28;20052;-83
2021/06/29 10:43:10;;;;;;;16.80;15.23;;;;;;;28.25;51.76;99323.16;5051186;28;20059;-83
2021/06/29 10:45:47;;;;;;;16.50;15.00;;;;;;;28.24;51.06;99325.03;5050767;28;20075;-84
2021/06/29 10:48:16;;;;;;;16.88;15.27;;;;;;;28.31;51.02;99316.91;5051572;28;20482;-84
2021/06/29 10:50:46;;;;;;;16.77;15.18;;;;;;;28.34;50.58;99321.91;5050997;28;20049;-84
2021/06/29 10:53:56;;;;;;;17.20;15.60;;;;;;;28.37;50.86;99328.75;5052101;28;20059;-84
2021/06/29 10:56:27;;;;;;;14.95;13.55;;;;;;;28.50;51.55;99323.28;4978618;28;20054;-83
2021/06/29 10:58:53;;;;;;;16.02;13.35;;;;;;;28.55;51.09;99330.75;5045487;28;20053;-84
2021/06/29 11:01:29;;;;;;;15.93;14.48;;;;;;;28.53;49.33;99336.38;5054994;28;20056;-84
2021/06/29 11:04:03;;;;;;;15.88;14.38;;;;;;;28.50;49.32;99325.97;5054466;28;20104;-83
2021/06/29 11:06:46;;;;;;;16.15;14.65;;;;;;;28.45;49.53;99325.81;5055069;28;20055;-84
2021/06/29 11:09:20;;;;;;;16.50;14.80;;;;;;;28.32;49.33;99329.38;5054724;28;20131;-84
2021/06/29 11:12:24;;;;;;;14.82;13.48;;;;;;;28.16;50.65;99318.00;5054882;28;20107;-83
2021/06/29 11:14:58;;;;;;;17.90;16.00;;;;;;;28.13;49.34;99322.97;4997589;28;20058;-84
2021/06/29 11:17:55;;;;;;;16.15;14.65;;;;;;;28.03;51.11;99320.75;4997914;28;20064;-84
2021/06/29 11:20:25;;;;;;;16.15;14.63;;;;;;;28.04;50.64;99322.41;4981565;28;20560;-83
2021/06/29 11:23:02;;;;;;;16.75;15.05;;;;;;;28.01;50.50;99325.53;5011565;28;20421;-83
2021/06/29 11:25:56;;;;;;;17.48;15.43;;;;;;;27.96;51.10;99324.28;5034337;28;20060;-82
2021/06/29 11:28:46;;;;;;;17.17;15.48;;;;;;;27.99;50.29;99314.09;5048476;28;20049;-82
2021/06/29 11:31:20;;;;;;;17.67;15.98;;;;;;;28.00;50.49;99319.31;5034468;28;20490;-82
2021/06/29 11:33:54;;;;;;;19.40;15.73;;;;;;;28.04;50.07;99317.84;5034496;28;20391;-83
2021/06/29 11:36:25;;;;;;;16.90;14.95;;;;;;;28.05;49.48;99319.50;5032354;28;20405;-83